Time;durP1;ratioP1;P1;durP2;ratioP2;P2;SDS_P1;SDS_P2;PMS_P1;PMS_P2;Temp;Humidity;BMP_temperature;BMP_pressure;BME280_temperature;BME280_humidity;BME280_pressure;Samples;Min_cycle;Max_cycle;Signal;HPM_P1;HPM_P2
2023/11/30 00:00:28;;;;;;;;;;;;;;;0.07;100.00;94423.81;10589794;27;2936;-69
2023/11/30 00:05:30;;;;;;;;;;;;;;;0.05;100.00;94410.03;10587604;27;2847;-69
2023/11/30 00:10:34;;;;;;;;;;;;;;;0.14;100.00;94398.03;10582257;27;2806;-71
2023/11/30 00:15:37;;;;;;;;;;;;;;;0.07;100.00;94402.66;10593553;27;3327;-69
2023/11/30 00:20:40;;;;;;;;;;;;;;;0.04;100.00;94419.00;10585116;27;3154;-69
2023/11/30 00:25:47;;;;;;;;;;;;;;;0.04;100.00;94429.56;10592127;27;2870;-72
2023/11/30 00:30:50;;;;;;;;;;;;;;;0.05;100.00;94417.94;10588018;27;2989;-69
2023/11/30 00:35:53;;;;;;;;;;;;;;;0.00;100.00;94423.97;10590791;27;2787;-68
2023/11/30 00:40:56;;;;;;;;;;;;;;;-0.01;100.00;94417.84;10593350;27;2892;-69
2023/11/30 00:45:58;;;;;;;;;;;;;;;0.02;100.00;94416.59;10590505;27;4672;-70
2023/11/30 00:51:13;;;;;;;;;;;;;;;-0.02;100.00;94420.75;10587708;27;3089;-75
2023/11/30 00:56:17;;;;;;;;;;;;;;;-0.02;100.00;94416.25;10590708;27;2916;-70
2023/11/30 01:01:19;;;;;;;;;;;;;;;0.01;100.00;94415.00;10585449;27;2887;-69
2023/11/30 01:06:22;;;;;;;;;;;;;;;0.03;100.00;94406.81;10585557;27;2808;-69
2023/11/30 01:11:25;;;;;;;;;;;;;;;-0.08;100.00;94401.38;10588882;27;2856;-70
2023/11/30 01:16:27;;;;;;;;;;;;;;;-0.08;100.00;94401.38;10591520;27;2823;-69
2023/11/30 01:21:30;;;;;;;;;;;;;;;-0.08;100.00;94406.66;10587267;27;3118;-70
2023/11/30 01:26:34;;;;;;;;;;;;;;;-0.06;100.00;94419.66;10583135;27;2868;-68
2023/11/30 01:31:36;;;;;;;;;;;;;;;-0.10;100.00;94416.69;10588065;27;2894;-70
2023/11/30 01:36:40;;;;;;;;;;;;;;;-0.16;100.00;94409.72;10582594;27;2855;-70
2023/11/30 01:41:43;;;;;;;;;;;;;;;-0.24;100.00;94406.69;10590405;27;2890;-70
2023/11/30 01:46:46;;;;;;;;;;;;;;;-0.38;100.00;94406.16;10586670;27;4496;-70
2023/11/30 01:51:49;;;;;;;;;;;;;;;-0.46;100.00;94388.06;10599209;27;2950;-69
2023/11/30 01:56:52;;;;;;;;;;;;;;;-0.56;100.00;94378.16;10593036;27;2930;-68
2023/11/30 02:01:54;;;;;;;;;;;;;;;-0.58;100.00;94380.22;10591549;27;2908;-74
2023/11/30 02:06:57;;;;;;;;;;;;;;;-0.61;100.00;94376.22;10589029;27;3005;-73
2023/11/30 02:12:03;;;;;;;;;;;;;;;-0.65;100.00;94379.56;10596494;27;2982;-71
2023/11/30 02:17:06;;;;;;;;;;;;;;;-0.73;100.00;94369.41;10597460;27;2972;-69
2023/11/30 02:22:09;;;;;;;;;;;;;;;-0.74;100.00;94363.34;10593660;27;2947;-70
2023/11/30 02:27:12;;;;;;;;;;;;;;;-0.82;100.00;94346.06;10592578;27;2870;-69
2023/11/30 02:32:14;;;;;;;;;;;;;;;-0.80;100.00;94339.75;10591724;27;3122;-68
2023/11/30 02:37:20;;;;;;;;;;;;;;;-0.76;100.00;94341.69;10590806;27;2937;-68
2023/11/30 02:42:23;;;;;;;;;;;;;;;-0.69;100.00;94331.75;10594713;27;2851;-67
2023/11/30 02:47:25;;;;;;;;;;;;;;;-0.58;100.00;94328.22;10597029;27;4821;-70
2023/11/30 02:52:28;;;;;;;;;;;;;;;-0.53;100.00;94329.38;10593149;27;2875;-69
2023/11/30 02:57:31;;;;;;;;;;;;;;;-0.55;100.00;94321.69;10588231;27;2873;-72
2023/11/30 03:02:34;;;;;;;;;;;;;;;-0.50;100.00;94329.69;10570851;27;2894;-72
2023/11/30 03:07:37;;;;;;;;;;;;;;;-0.46;100.00;94324.72;10589629;27;2956;-71
2023/11/30 03:12:40;;;;;;;;;;;;;;;-0.49;100.00;94320.72;10595454;27;3012;-68
2023/11/30 03:17:44;;;;;;;;;;;;;;;-0.41;100.00;94311.59;10576177;27;2840;-75
2023/11/30 03:22:47;;;;;;;;;;;;;;;-0.37;100.00;94302.97;10592767;27;2859;-69
2023/11/30 03:27:49;;;;;;;;;;;;;;;-0.36;100.00;94301.13;10594519;27;3426;-69
2023/11/30 03:32:52;;;;;;;;;;;;;;;-0.27;100.00;94289.91;10576648;27;2981;-69
2023/11/30 03:37:54;;;;;;;;;;;;;;;-0.19;100.00;94288.72;10593863;27;3159;-67
2023/11/30 03:42:57;;;;;;;;;;;;;;;-0.19;100.00;94277.31;10589702;27;2883;-69
2023/11/30 03:48:00;;;;;;;;;;;;;;;-0.18;100.00;94284.22;10591753;27;2788;-69
2023/11/30 03:53:02;;;;;;;;;;;;;;;-0.14;100.00;94294.03;10594029;27;2983;-71
2023/11/30 03:58:05;;;;;;;;;;;;;;;-0.14;100.00;94286.13;10594310;27;2827;-68
2023/11/30 04:03:08;;;;;;;;;;;;;;;-0.13;100.00;94293.00;10570059;27;2923;-69
2023/11/30 04:08:10;;;;;;;;;;;;;;;0.04;100.00;94326.53;10594934;27;2887;-69
2023/11/30 04:13:13;;;;;;;;;;;;;;;0.02;100.00;94296.91;10595405;27;2864;-67
2023/11/30 04:18:18;;;;;;;;;;;;;;;0.09;100.00;94305.47;10592737;27;2823;-70
2023/11/30 04:23:21;;;;;;;;;;;;;;;0.13;100.00;94291.53;10576137;27;2929;-69
2023/11/30 04:28:24;;;;;;;;;;;;;;;0.13;100.00;94293.38;10570086;27;2865;-70
2023/11/30 04:33:27;;;;;;;;;;;;;;;0.12;100.00;94260.03;10588779;27;2981;-68
2023/11/30 04:38:30;;;;;;;;;;;;;;;0.09;100.00;94227.00;10586708;27;2946;-69
2023/11/30 04:43:36;;;;;;;;;;;;;;;0.05;100.00;94254.16;10585790;27;3048;-70
2023/11/30 04:48:39;;;;;;;;;;;;;;;-0.03;100.00;94229.75;10589405;27;2883;-69
2023/11/30 04:53:43;;;;;;;;;;;;;;;0.03;100.00;94227.97;10592383;27;2886;-69
2023/11/30 04:58:46;;;;;;;;;;;;;;;0.11;100.00;94239.94;10593486;27;2866;-70
2023/11/30 05:03:49;;;;;;;;;;;;;;;0.12;100.00;94231.78;10590221;27;2875;-70
2023/11/30 05:08:52;;;;;;;;;;;;;;;0.08;100.00;94240.47;10589410;27;2850;-68
2023/11/30 05:13:55;;;;;;;;;;;;;;;-0.02;100.00;94249.84;10590904;27;2835;-69
2023/11/30 05:18:58;;;;;;;;;;;;;;;0.10;100.00;94241.78;10588897;27;2873;-69
2023/11/30 05:24:01;;;;;;;;;;;;;;;0.13;100.00;94232.59;10593312;27;2911;-68
2023/11/30 05:29:04;;;;;;;;;;;;;;;0.16;100.00;94232.88;10592070;27;2870;-68
2023/11/30 05:34:07;;;;;;;;;;;;;;;0.14;100.00;94226.25;10584183;27;3248;-71
2023/11/30 05:39:10;;;;;;;;;;;;;;;0.20;100.00;94218.16;10585822;27;3021;-67
2023/11/30 05:44:12;;;;;;;;;;;;;;;0.12;100.00;94223.06;10583953;27;4739;-68
2023/11/30 05:49:15;;;;;;;;;;;;;;;0.32;100.00;94236.53;10583588;27;2866;-69
2023/11/30 05:54:18;;;;;;;;;;;;;;;0.31;100.00;94234.91;10576466;27;2825;-69
2023/11/30 05:59:20;;;;;;;;;;;;;;;0.27;100.00;94217.97;10585454;27;2949;-72
2023/11/30 06:04:23;;;;;;;;;;;;;;;0.31;100.00;94215.59;10584755;27;2870;-70
2023/11/30 06:09:27;;;;;;;;;;;;;;;0.31;100.00;94213.75;10585420;27;3004;-70
2023/11/30 06:14:30;;;;;;;;;;;;;;;0.36;100.00;94192.66;10587053;27;2853;-69
2023/11/30 06:19:34;;;;;;;;;;;;;;;0.49;100.00;94192.28;10582951;27;2838;-69
2023/11/30 06:24:37;;;;;;;;;;;;;;;0.53;100.00;94189.94;10589341;27;2914;-70
2023/11/30 06:29:40;;;;;;;;;;;;;;;0.69;100.00;94201.44;10583903;27;2922;-71
2023/11/30 06:34:42;;;;;;;;;;;;;;;0.61;100.00;94200.06;10583680;27;2813;-75
2023/11/30 06:39:45;;;;;;;;;;;;;;;0.67;100.00;94191.13;10591792;27;2915;-70
2023/11/30 06:44:47;;;;;;;;;;;;;;;0.68;100.00;94191.94;10592055;27;4747;-69
2023/11/30 06:49:50;;;;;;;;;;;;;;;0.75;100.00;94203.91;10591599;27;3477;-75
2023/11/30 06:54:53;;;;;;;;;;;;;;;0.74;100.00;94190.94;10590129;27;2845;-69
2023/11/30 06:59:56;;;;;;;;;;;;;;;0.77;100.00;94177.22;10594977;27;2842;-68
2023/11/30 07:05:04;;;;;;;;;;;;;;;0.76;100.00;94194.94;10595594;27;2846;-69
2023/11/30 07:10:07;;;;;;;;;;;;;;;0.86;100.00;94180.19;10594647;27;2846;-69
2023/11/30 07:15:10;;;;;;;;;;;;;;;0.96;100.00;94185.56;10595432;27;2900;-70
2023/11/30 07:20:13;;;;;;;;;;;;;;;0.92;100.00;94192.41;10587423;27;2874;-71
2023/11/30 07:25:15;;;;;;;;;;;;;;;1.01;100.00;94191.69;10583320;27;2995;-70
2023/11/30 07:30:17;;;;;;;;;;;;;;;1.02;100.00;94185.38;10588888;27;2966;-70
2023/11/30 07:35:20;;;;;;;;;;;;;;;1.03;100.00;94176.38;10586299;27;2823;-76
2023/11/30 07:40:23;;;;;;;;;;;;;;;1.18;100.00;94169.59;10586867;27;2862;-71
2023/11/30 07:45:26;;;;;;;;;;;;;;;1.22;100.00;94165.41;10578219;27;4626;-72
2023/11/30 07:50:28;;;;;;;;;;;;;;;1.27;100.00;94171.53;10577244;27;2819;-70
2023/11/30 07:55:33;;;;;;;;;;;;;;;1.37;100.00;94160.19;10581429;27;3178;-70
2023/11/30 08:00:35;;;;;;;;;;;;;;;1.55;100.00;94154.47;10580940;27;3052;-69
2023/11/30 08:05:38;;;;;;;;;;;;;;;1.51;100.00;94144.66;10558674;27;2858;-70
2023/11/30 08:10:42;;;;;;;;;;;;;;;1.46;100.00;94163.94;10580352;27;2803;-69
2023/11/30 08:15:44;;;;;;;;;;;;;;;1.75;100.00;94152.97;10584033;27;2896;-70
2023/11/30 08:20:48;;;;;;;;;;;;;;;1.59;100.00;94147.63;10578315;27;2932;-69
2023/11/30 08:25:50;;;;;;;;;;;;;;;1.66;100.00;94159.84;10585990;27;2907;-68
2023/11/30 08:30:53;;;;;;;;;;;;;;;1.64;100.00;94157.41;10581111;27;2952;-68
2023/11/30 08:35:56;;;;;;;;;;;;;;;1.77;100.00;94156.16;10585948;27;2914;-71
2023/11/30 08:40:59;;;;;;;;;;;;;;;1.66;100.00;94154.53;10583210;27;2877;-69
2023/11/30 08:46:04;;;;;;;;;;;;;;;1.61;100.00;94150.00;10578967;27;4378;-68
2023/11/30 08:51:08;;;;;;;;;;;;;;;1.79;100.00;94140.81;10580441;27;2889;-69
2023/11/30 08:56:10;;;;;;;;;;;;;;;1.89;100.00;94148.81;10581450;27;2901;-70
2023/11/30 09:01:13;;;;;;;;;;;;;;;1.80;100.00;94155.66;10583278;27;2879;-75
2023/11/30 09:06:16;;;;;;;;;;;;;;;1.88;100.00;94155.16;10589147;27;2870;-67
2023/11/30 09:11:19;;;;;;;;;;;;;;;2.01;100.00;94151.22;10579500;27;2914;-69
2023/11/30 09:16:23;;;;;;;;;;;;;;;1.95;100.00;94147.75;10567650;27;3031;-69
2023/11/30 09:21:26;;;;;;;;;;;;;;;1.72;100.00;94149.00;10581732;27;2920;-70
2023/11/30 09:26:29;;;;;;;;;;;;;;;1.63;100.00;94148.69;10586341;27;2842;-68
2023/11/30 09:31:33;;;;;;;;;;;;;;;1.32;100.00;94142.41;10565383;27;2863;-69
2023/11/30 09:36:36;;;;;;;;;;;;;;;0.93;100.00;94152.47;10582721;27;2940;-67
2023/11/30 09:41:39;;;;;;;;;;;;;;;0.55;100.00;94166.69;10584254;27;2916;-68
2023/11/30 09:46:42;;;;;;;;;;;;;;;0.45;100.00;94140.97;10579375;27;4681;-67
2023/11/30 09:51:45;;;;;;;;;;;;;;;0.57;100.00;94146.06;10579215;27;2847;-73
2023/11/30 09:56:47;;;;;;;;;;;;;;;0.64;100.00;94137.97;10580264;27;2942;-69
2023/11/30 10:01:50;;;;;;;;;;;;;;;0.63;100.00;94131.06;10583095;27;3137;-68
2023/11/30 10:06:53;;;;;;;;;;;;;;;0.75;100.00;94121.91;10579895;27;2901;-68
2023/11/30 10:11:55;;;;;;;;;;;;;;;0.79;100.00;94122.22;10588903;27;2883;-70
2023/11/30 10:16:58;;;;;;;;;;;;;;;0.74;100.00;94115.03;10592645;27;2819;-69
2023/11/30 10:22:00;;;;;;;;;;;;;;;0.47;100.00;94112.44;10586589;27;2847;-68
2023/11/30 10:27:04;;;;;;;;;;;;;;;0.54;100.00;94106.94;10589286;27;2862;-69
2023/11/30 10:32:06;;;;;;;;;;;;;;;0.47;100.00;94101.06;10589409;27;2830;-67
2023/11/30 10:37:09;;;;;;;;;;;;;;;0.51;100.00;94081.00;10582812;27;2882;-67
2023/11/30 10:42:12;;;;;;;;;;;;;;;0.51;100.00;94070.44;10592343;27;2906;-67
2023/11/30 10:47:15;;;;;;;;;;;;;;;0.35;100.00;94051.00;10587999;27;5026;-68
2023/11/30 10:52:18;;;;;;;;;;;;;;;0.24;100.00;94050.09;10588534;27;2820;-70
2023/11/30 10:57:22;;;;;;;;;;;;;;;0.15;100.00;94040.25;10588279;27;2933;-69
2023/11/30 11:02:25;;;;;;;;;;;;;;;0.21;100.00;94033.97;10592452;27;2856;-70
2023/11/30 11:07:28;;;;;;;;;;;;;;;0.21;100.00;94029.47;10587588;27;2932;-67
2023/11/30 11:12:30;;;;;;;;;;;;;;;0.31;100.00;94026.09;10593011;27;3267;-70
2023/11/30 11:17:33;;;;;;;;;;;;;;;0.25;100.00;94021.81;10590023;27;2851;-69
2023/11/30 11:22:36;;;;;;;;;;;;;;;0.41;100.00;94023.56;10587157;27;2980;-70
2023/11/30 11:27:39;;;;;;;;;;;;;;;0.28;100.00;94013.41;10579667;27;2969;-69
2023/11/30 11:32:42;;;;;;;;;;;;;;;0.40;100.00;94026.47;10577547;27;2930;-69
2023/11/30 11:37:46;;;;;;;;;;;;;;;0.35;100.00;94040.41;10579214;27;2900;-70
2023/11/30 11:42:50;;;;;;;;;;;;;;;0.09;100.00;94020.13;10575981;27;2831;-69
2023/11/30 11:47:54;;;;;;;;;;;;;;;0.22;100.00;94004.66;10592571;27;4642;-71
2023/11/30 11:52:56;;;;;;;;;;;;;;;0.28;100.00;94002.03;10587017;27;2878;-70
2023/11/30 11:57:59;;;;;;;;;;;;;;;0.32;100.00;93993.38;10594506;27;2902;-73
2023/11/30 12:03:02;;;;;;;;;;;;;;;0.40;100.00;94000.81;10586872;27;2832;-70
2023/11/30 12:08:05;;;;;;;;;;;;;;;0.12;100.00;93987.91;10587196;27;2848;-72
2023/11/30 12:13:16;;;;;;;;;;;;;;;0.32;100.00;93992.53;10593591;27;2823;-69
2023/11/30 12:18:20;;;;;;;;;;;;;;;0.34;100.00;93991.25;10583356;27;2870;-69
2023/11/30 12:23:24;;;;;;;;;;;;;;;0.24;100.00;93985.88;10582392;27;2886;-69
2023/11/30 12:28:27;;;;;;;;;;;;;;;0.09;100.00;93993.69;10583741;27;2913;-70
2023/11/30 12:33:30;;;;;;;;;;;;;;;0.09;100.00;93988.41;10589579;27;2910;-70
2023/11/30 12:38:33;;;;;;;;;;;;;;;0.01;100.00;93970.41;10583006;27;2902;-71
2023/11/30 12:43:36;;;;;;;;;;;;;;;-0.04;100.00;93990.44;10581721;27;4729;-71
2023/11/30 12:48:39;;;;;;;;;;;;;;;0.02;100.00;93983.34;10588164;27;2919;-70
2023/11/30 12:53:41;;;;;;;;;;;;;;;0.07;100.00;93985.25;10585440;27;2891;-72
2023/11/30 12:58:45;;;;;;;;;;;;;;;0.11;100.00;93979.19;10579278;27;2859;-70
2023/11/30 13:03:47;;;;;;;;;;;;;;;0.03;100.00;93973.56;10582199;27;3209;-72
2023/11/30 13:08:50;;;;;;;;;;;;;;;-0.07;100.00;93964.50;10586373;27;2946;-70
2023/11/30 13:13:54;;;;;;;;;;;;;;;-0.15;100.00;93977.38;10590609;27;3158;-72
2023/11/30 13:18:57;;;;;;;;;;;;;;;-0.06;100.00;93975.88;10581966;27;2869;-72
2023/11/30 13:24:00;;;;;;;;;;;;;;;-0.03;100.00;93978.81;10585851;27;3203;-69
2023/11/30 13:29:03;;;;;;;;;;;;;;;-0.10;100.00;93970.28;10576911;27;2818;-68
2023/11/30 13:34:06;;;;;;;;;;;;;;;-0.09;100.00;93963.16;10560157;27;2996;-68
2023/11/30 13:39:11;;;;;;;;;;;;;;;-0.18;100.00;93962.84;10579846;27;2845;-67
2023/11/30 13:44:14;;;;;;;;;;;;;;;-0.15;100.00;93970.25;10587014;27;4685;-69
2023/11/30 13:49:18;;;;;;;;;;;;;;;-0.15;100.00;93974.72;10584238;27;2870;-69
2023/11/30 13:54:22;;;;;;;;;;;;;;;-0.08;100.00;93984.03;10581003;27;2895;-70
2023/11/30 13:59:25;;;;;;;;;;;;;;;0.01;100.00;93981.75;10579838;27;2824;-68
2023/11/30 14:04:27;;;;;;;;;;;;;;;-0.18;100.00;93978.69;10589300;27;2886;-70
2023/11/30 14:09:31;;;;;;;;;;;;;;;-0.13;100.00;93980.56;10569573;27;2949;-68
2023/11/30 14:14:35;;;;;;;;;;;;;;;-0.19;100.00;93985.03;10587391;27;2842;-68
2023/11/30 14:19:38;;;;;;;;;;;;;;;-0.07;100.00;93990.13;10592228;27;2829;-70
2023/11/30 14:24:42;;;;;;;;;;;;;;;-0.16;100.00;93992.44;10587589;27;2855;-69
2023/11/30 14:29:45;;;;;;;;;;;;;;;-0.31;100.00;93982.53;10584304;27;2953;-69
2023/11/30 14:34:48;;;;;;;;;;;;;;;-0.21;100.00;93987.09;10583654;27;2860;-69
2023/11/30 14:39:51;;;;;;;;;;;;;;;-0.30;100.00;93985.97;10583258;27;2857;-71
2023/11/30 14:44:57;;;;;;;;;;;;;;;-0.41;100.00;93989.53;10585188;27;2947;-69
2023/11/30 14:50:00;;;;;;;;;;;;;;;-0.39;100.00;93990.09;10582457;27;2829;-68
2023/11/30 14:55:03;;;;;;;;;;;;;;;-0.40;100.00;93980.56;10584296;27;2896;-69
2023/11/30 15:00:10;;;;;;;;;;;;;;;-0.40;100.00;93975.28;10589311;27;2831;-69
2023/11/30 15:05:14;;;;;;;;;;;;;;;-0.27;100.00;93986.25;10591452;27;2913;-75
2023/11/30 15:10:17;;;;;;;;;;;;;;;-0.24;100.00;94008.72;10595602;27;2862;-71
2023/11/30 15:15:20;;;;;;;;;;;;;;;-0.26;100.00;94008.16;10598366;27;2910;-69
2023/11/30 15:20:23;;;;;;;;;;;;;;;-0.24;100.00;93998.16;10591791;27;2981;-69
2023/11/30 15:25:27;;;;;;;;;;;;;;;-0.27;100.00;94001.28;10589286;27;3214;-70
2023/11/30 15:30:29;;;;;;;;;;;;;;;-0.23;100.00;94010.31;10595011;27;2852;-68
2023/11/30 15:35:32;;;;;;;;;;;;;;;-0.14;100.00;94006.16;10594286;27;3041;-69
2023/11/30 15:40:36;;;;;;;;;;;;;;;-0.18;100.00;94004.31;10594005;27;2854;-69
2023/11/30 15:45:39;;;;;;;;;;;;;;;-0.20;100.00;94004.53;10571735;27;4610;-69
2023/11/30 15:50:44;;;;;;;;;;;;;;;-0.17;100.00;93998.75;10590044;27;2808;-69
2023/11/30 15:55:47;;;;;;;;;;;;;;;-0.17;100.00;93995.31;10589959;27;3128;-75
2023/11/30 16:00:49;;;;;;;;;;;;;;;-0.18;100.00;93999.81;10592177;27;2811;-69
2023/11/30 16:05:52;;;;;;;;;;;;;;;-0.19;100.00;94003.50;10587935;27;2921;-70
2023/11/30 16:10:55;;;;;;;;;;;;;;;-0.18;100.00;93988.44;10593511;27;2819;-71
2023/11/30 16:15:57;;;;;;;;;;;;;;;-0.16;100.00;93989.78;10590253;27;2989;-72
2023/11/30 16:21:00;;;;;;;;;;;;;;;-0.14;100.00;93987.69;10595538;27;2858;-71
2023/11/30 16:26:03;;;;;;;;;;;;;;;-0.04;100.00;93994.91;10589551;27;3280;-70
2023/11/30 16:31:05;;;;;;;;;;;;;;;-0.01;100.00;94012.88;10589775;27;2819;-71
2023/11/30 16:36:08;;;;;;;;;;;;;;;0.03;100.00;94005.28;10592057;27;2860;-71
2023/11/30 16:41:11;;;;;;;;;;;;;;;0.05;100.00;94003.16;10589464;27;3239;-69
2023/11/30 16:46:13;;;;;;;;;;;;;;;0.04;100.00;94012.94;10591535;27;4641;-75
2023/11/30 16:51:16;;;;;;;;;;;;;;;0.01;100.00;94018.75;10589746;27;2939;-72
2023/11/30 16:56:19;;;;;;;;;;;;;;;0.05;100.00;94014.53;10585035;27;2955;-70
2023/11/30 17:01:24;;;;;;;;;;;;;;;-0.07;100.00;94017.31;10594367;27;3332;-72
2023/11/30 17:06:26;;;;;;;;;;;;;;;-0.06;100.00;94018.94;10594636;27;2784;-70
2023/11/30 17:11:29;;;;;;;;;;;;;;;-0.02;100.00;94027.94;10589301;27;2922;-71
2023/11/30 17:16:32;;;;;;;;;;;;;;;-0.01;100.00;94024.25;10580126;27;2823;-70
2023/11/30 17:21:35;;;;;;;;;;;;;;;-0.10;100.00;94020.47;10590911;27;2872;-72
2023/11/30 17:26:38;;;;;;;;;;;;;;;-0.11;100.00;94010.97;10593740;27;2787;-69
2023/11/30 17:31:41;;;;;;;;;;;;;;;-0.07;100.00;94000.69;10569830;27;2858;-75
2023/11/30 17:36:44;;;;;;;;;;;;;;;-0.07;100.00;94001.47;10593966;27;2888;-74
2023/11/30 17:41:48;;;;;;;;;;;;;;;-0.08;100.00;94013.09;10589115;27;2811;-73
2023/11/30 17:46:52;;;;;;;;;;;;;;;-0.06;100.00;94000.44;10598802;27;2869;-71
2023/11/30 17:51:55;;;;;;;;;;;;;;;-0.02;100.00;94008.66;10562480;27;2806;-71
2023/11/30 17:56:59;;;;;;;;;;;;;;;0.00;100.00;94001.31;10592935;27;2871;-70
2023/11/30 18:02:02;;;;;;;;;;;;;;;-0.04;100.00;94006.28;10569442;27;2810;-70
2023/11/30 18:07:09;;;;;;;;;;;;;;;-0.03;100.00;94002.56;10590229;27;2837;-76
2023/11/30 18:12:13;;;;;;;;;;;;;;;-0.04;100.00;93990.44;10583933;27;2891;-73
2023/11/30 18:17:15;;;;;;;;;;;;;;;0.00;100.00;93974.88;10594365;27;2931;-72
2023/11/30 18:22:19;;;;;;;;;;;;;;;0.01;100.00;93986.25;10589773;27;2826;-72
2023/11/30 18:27:22;;;;;;;;;;;;;;;0.07;100.00;93985.25;10588602;27;2882;-74
2023/11/30 18:32:24;;;;;;;;;;;;;;;0.11;100.00;93991.59;10582978;27;2797;-73
2023/11/30 18:37:27;;;;;;;;;;;;;;;0.10;100.00;93984.72;10602122;27;2844;-73
2023/11/30 18:42:31;;;;;;;;;;;;;;;0.12;100.00;93993.97;10583272;27;2906;-73
2023/11/30 18:47:36;;;;;;;;;;;;;;;0.21;100.00;93991.69;10587945;27;4697;-76
2023/11/30 18:52:39;;;;;;;;;;;;;;;0.21;100.00;94005.69;10578345;27;2871;-70
2023/11/30 18:57:41;;;;;;;;;;;;;;;0.22;100.00;93996.72;10586529;27;2845;-75
2023/11/30 19:02:44;;;;;;;;;;;;;;;0.22;100.00;93998.56;10584164;27;2879;-76
2023/11/30 19:07:46;;;;;;;;;;;;;;;0.29;100.00;93993.84;10586792;27;2802;-70
2023/11/30 19:12:49;;;;;;;;;;;;;;;0.35;100.00;93997.34;10594106;27;2835;-73
2023/11/30 19:17:52;;;;;;;;;;;;;;;0.36;100.00;93983.88;10589095;27;2882;-72
2023/11/30 19:22:57;;;;;;;;;;;;;;;0.39;100.00;93983.38;10585895;27;2954;-71
2023/11/30 19:28:01;;;;;;;;;;;;;;;0.38;100.00;93981.78;10585540;27;2870;-72
2023/11/30 19:33:03;;;;;;;;;;;;;;;0.38;100.00;93976.50;10588606;27;2866;-72
2023/11/30 19:38:06;;;;;;;;;;;;;;;0.33;100.00;93968.53;10568898;27;3000;-70
2023/11/30 19:43:09;;;;;;;;;;;;;;;0.35;100.00;93979.63;10583657;27;4646;-72
2023/11/30 19:48:13;;;;;;;;;;;;;;;0.31;100.00;93978.53;10573703;27;2851;-72
2023/11/30 19:53:16;;;;;;;;;;;;;;;0.29;100.00;93977.22;10593745;27;2921;-70
2023/11/30 19:58:19;;;;;;;;;;;;;;;0.23;100.00;93982.44;10596754;27;2857;-71
2023/11/30 20:03:22;;;;;;;;;;;;;;;0.29;100.00;93978.00;10597767;27;2955;-71
2023/11/30 20:08:27;;;;;;;;;;;;;;;0.20;100.00;93969.75;10602107;27;2770;-70
2023/11/30 20:13:30;;;;;;;;;;;;;;;0.27;100.00;93974.81;10595944;27;2935;-71
2023/11/30 20:18:33;;;;;;;;;;;;;;;0.22;100.00;93990.63;10597664;27;2921;-71
2023/11/30 20:23:38;;;;;;;;;;;;;;;0.26;100.00;93994.38;10591722;27;2950;-70
2023/11/30 20:28:41;;;;;;;;;;;;;;;0.22;100.00;93994.06;10591664;27;2815;-72
2023/11/30 20:33:45;;;;;;;;;;;;;;;0.19;100.00;93999.88;10592033;27;2865;-69
2023/11/30 20:38:51;;;;;;;;;;;;;;;0.18;100.00;93994.81;10588102;27;2912;-71
2023/11/30 20:43:56;;;;;;;;;;;;;;;0.14;100.00;94007.75;10586028;27;4417;-71
2023/11/30 20:48:59;;;;;;;;;;;;;;;0.16;100.00;94004.84;10592117;27;2841;-71
2023/11/30 20:54:04;;;;;;;;;;;;;;;0.14;100.00;94004.31;10607789;27;2301;-70
2023/11/30 20:59:11;;;;;;;;;;;;;;;0.20;100.00;94005.94;10611151;27;1624;-77
2023/11/30 21:04:13;;;;;;;;;;;;;;;0.29;100.00;94007.06;10611994;27;1618;-70
2023/11/30 21:09:17;;;;;;;;;;;;;;;0.18;100.00;94003.53;10607439;27;2233;-70
2023/11/30 21:14:20;;;;;;;;;;;;;;;0.26;100.00;94010.22;10610590;27;2524;-71
2023/11/30 21:19:23;;;;;;;;;;;;;;;0.32;100.00;94009.22;10606088;27;1540;-75
2023/11/30 21:24:28;;;;;;;;;;;;;;;0.30;100.00;94013.94;10610518;27;1574;-70
2023/11/30 21:29:31;;;;;;;;;;;;;;;0.30;100.00;94003.38;10606636;27;1581;-71
2023/11/30 21:34:34;;;;;;;;;;;;;;;0.32;100.00;94009.22;10607635;27;1963;-68
2023/11/30 21:39:37;;;;;;;;;;;;;;;0.28;100.00;94002.84;10608311;27;1729;-76
2023/11/30 21:44:40;;;;;;;;;;;;;;;0.25;100.00;94011.25;10604207;27;4716;-70
2023/11/30 21:49:44;;;;;;;;;;;;;;;0.30;100.00;94016.59;10607234;27;1518;-71
2023/11/30 21:54:47;;;;;;;;;;;;;;;0.31;100.00;94010.25;10603740;27;1921;-71
2023/11/30 21:59:51;;;;;;;;;;;;;;;0.38;100.00;94012.69;10609301;27;2248;-70
2023/11/30 22:04:54;;;;;;;;;;;;;;;0.44;100.00;94016.94;10601008;27;1707;-70
2023/11/30 22:10:00;;;;;;;;;;;;;;;0.49;100.00;94017.00;10610061;27;1663;-71
2023/11/30 22:15:03;;;;;;;;;;;;;;;0.51;100.00;94034.22;10613351;27;1945;-71
2023/11/30 22:20:06;;;;;;;;;;;;;;;0.54;100.00;94028.41;10612905;27;1490;-71
2023/11/30 22:25:10;;;;;;;;;;;;;;;0.56;100.00;94028.16;10614816;27;1609;-73
2023/11/30 22:30:13;;;;;;;;;;;;;;;0.64;100.00;94040.91;10613504;27;1584;-71
2023/11/30 22:35:16;;;;;;;;;;;;;;;0.56;100.00;94020.22;10595867;27;1910;-69
2023/11/30 22:40:19;;;;;;;;;;;;;;;0.53;100.00;94021.53;10613162;27;2417;-69
2023/11/30 22:45:24;;;;;;;;;;;;;;;0.57;100.00;94021.00;10615278;27;4638;-69
2023/11/30 22:50:26;;;;;;;;;;;;;;;0.59;100.00;94022.38;10610295;27;1520;-71
2023/11/30 22:55:31;;;;;;;;;;;;;;;0.58;100.00;94018.13;10609818;27;1917;-68
2023/11/30 23:00:34;;;;;;;;;;;;;;;0.73;100.00;94022.72;10614176;27;1587;-69
2023/11/30 23:05:37;;;;;;;;;;;;;;;0.70;100.00;94020.56;10609985;27;1651;-71
2023/11/30 23:10:41;;;;;;;;;;;;;;;0.74;100.00;94027.75;10594825;27;1972;-70
2023/11/30 23:15:44;;;;;;;;;;;;;;;0.79;100.00;94021.69;10615394;27;1454;-71
2023/11/30 23:20:47;;;;;;;;;;;;;;;0.81;100.00;94025.66;10612745;27;2296;-71
2023/11/30 23:25:49;;;;;;;;;;;;;;;0.88;100.00;94032.59;10609685;27;1377;-70
2023/11/30 23:30:52;;;;;;;;;;;;;;;0.98;100.00;94028.16;10609542;27;1990;-72
2023/11/30 23:35:55;;;;;;;;;;;;;;;0.99;100.00;94024.47;10613581;27;1548;-70
2023/11/30 23:40:58;;;;;;;;;;;;;;;1.00;100.00;94020.75;10608953;27;1485;-73
2023/11/30 23:46:02;;;;;;;;;;;;;;;0.99;100.00;94019.16;10592705;27;4609;-71
2023/11/30 23:51:05;;;;;;;;;;;;;;;0.99;100.00;94015.72;10612239;27;1980;-71
2023/11/30 23:56:07;;;;;;;;;;;;;;;0.97;100.00;94008.06;10610232;27;1564;-74
